Laurie, Missouri
Current Conditions -  °F | °C
As of 11:15 PM on Friday 28 Nov 2014 (Local Time) from KAIZ Reporting Station
Clear Clear  
Wind Chill: 42°   Ceiling: Unl
Heat Index: 46°   Visibility: 10mi
Dew Point: 34°   Wind: 8mph
Humidity: 62%   Direction: 170°S
Pressure: 29.84"   Gusts: NA
Location:  38.2°N, 92.83°W
Report Text: KAIZ 290515Z AUTO 17007KT 10SM CLR 08/01 A2984 RMK AO1
Loading
Personal Weather Stations






























Interactive Weather Map New forecast layout! Learn more

10-Day Weather Forecast

Advertisements
Track Severe Weather on mobile